createdAt,value
2023-01-21T00:00:39.118Z,100.00
2023-01-21T00:03:06.003Z,100.00
2023-01-21T00:05:32.860Z,100.00
2023-01-21T00:08:02.448Z,100.00
2023-01-21T00:10:29.457Z,100.00
2023-01-21T00:12:56.282Z,100.00
2023-01-21T00:15:23.061Z,100.00
2023-01-21T00:17:52.660Z,100.00
2023-01-21T00:20:19.849Z,100.00
2023-01-21T00:22:46.752Z,100.00
2023-01-21T00:25:13.536Z,100.00
2023-01-21T00:27:40.436Z,100.00
2023-01-21T00:30:07.800Z,100.00
2023-01-21T00:32:34.579Z,100.00
2023-01-21T00:35:01.360Z,100.00
2023-01-21T00:37:28.135Z,100.00
2023-01-21T00:39:54.941Z,100.00
2023-01-21T00:42:21.709Z,100.00
2023-01-21T00:44:48.511Z,100.00
2023-01-21T00:47:15.365Z,100.00
2023-01-21T00:49:42.178Z,100.00
2023-01-21T00:52:08.974Z,100.00
2023-01-21T00:54:35.857Z,100.00
2023-01-21T00:57:02.658Z,100.00
2023-01-21T00:59:30.138Z,100.00
2023-01-21T01:01:56.918Z,100.00
2023-01-21T01:04:23.714Z,100.00
2023-01-21T01:06:50.517Z,100.00
2023-01-21T01:09:17.468Z,100.00
2023-01-21T01:11:44.358Z,100.00
2023-01-21T01:14:11.151Z,100.00
2023-01-21T01:16:37.936Z,100.00
2023-01-21T01:19:05.016Z,100.00
2023-01-21T01:21:31.816Z,100.00
2023-01-21T01:24:03.112Z,100.00
2023-01-21T01:26:29.982Z,100.00
2023-01-21T01:28:56.799Z,100.00
2023-01-21T01:31:23.719Z,100.00
2023-01-21T01:33:50.564Z,100.00
2023-01-21T01:36:19.416Z,100.00
2023-01-21T01:38:46.361Z,100.00
2023-01-21T01:41:21.621Z,100.00
2023-01-21T01:44:08.116Z,100.00
2023-01-21T01:46:36.109Z,100.00
2023-01-21T01:49:21.259Z,100.00
2023-01-21T01:52:01.458Z,100.00
2023-01-21T01:54:32.415Z,100.00
2023-01-21T01:57:01.355Z,100.00
2023-01-21T01:59:28.533Z,100.00
2023-01-21T02:01:56.216Z,100.00
2023-01-21T02:04:29.336Z,100.00
2023-01-21T02:06:56.240Z,100.00
2023-01-21T02:09:23.392Z,100.00
2023-01-21T02:11:50.275Z,100.00
2023-01-21T02:14:18.855Z,100.00
2023-01-21T02:16:57.736Z,100.00
2023-01-21T02:19:48.841Z,100.00
2023-01-21T02:22:21.335Z,100.00
2023-01-21T02:25:03.077Z,100.00
2023-01-21T02:27:55.755Z,100.00
2023-01-21T02:30:48.703Z,100.00
2023-01-21T02:33:33.631Z,100.00
2023-01-21T02:36:19.084Z,100.00
2023-01-21T02:39:24.596Z,100.00
2023-01-21T02:42:01.639Z,100.00
2023-01-21T02:44:33.979Z,100.00
2023-01-21T02:47:22.315Z,100.00
2023-01-21T02:50:12.544Z,100.00
2023-01-21T02:52:39.354Z,100.00
2023-01-21T02:55:06.853Z,100.00
2023-01-21T02:57:53.062Z,100.00
2023-01-21T03:00:26.845Z,100.00
2023-01-21T03:03:24.636Z,100.00
2023-01-21T03:06:16.263Z,100.00
2023-01-21T03:09:12.795Z,100.00
2023-01-21T03:11:39.716Z,100.00
2023-01-21T03:14:24.912Z,100.00
2023-01-21T03:17:01.530Z,100.00
2023-01-21T03:19:49.533Z,100.00
2023-01-21T03:22:18.952Z,100.00
2023-01-21T03:24:47.279Z,100.00
2023-01-21T03:27:14.914Z,100.00
2023-01-21T03:29:42.386Z,100.00
2023-01-21T03:32:11.153Z,100.00
2023-01-21T03:34:42.032Z,100.00
2023-01-21T03:37:25.293Z,100.00
2023-01-21T03:40:19.273Z,100.00
2023-01-21T03:42:47.453Z,100.00
2023-01-21T03:45:14.575Z,100.00
2023-01-21T03:47:42.363Z,100.00
2023-01-21T03:50:43.021Z,100.00
2023-01-21T03:53:09.907Z,100.00
2023-01-21T03:55:36.898Z,100.00
2023-01-21T03:58:03.734Z,100.00
2023-01-21T04:00:30.507Z,100.00
2023-01-21T04:02:57.318Z,100.00
2023-01-21T04:05:24.118Z,100.00
2023-01-21T04:07:50.898Z,100.00
2023-01-21T04:10:18.481Z,100.00
2023-01-21T04:12:45.540Z,100.00
2023-01-21T04:15:12.699Z,100.00
2023-01-21T04:17:39.540Z,100.00
2023-01-21T04:20:07.544Z,100.00
2023-01-21T04:22:34.414Z,100.00
2023-01-21T04:25:01.236Z,100.00
2023-01-21T04:27:28.019Z,100.00
2023-01-21T04:29:54.884Z,100.00
2023-01-21T04:32:21.690Z,100.00
2023-01-21T04:34:48.494Z,100.00
2023-01-21T04:37:15.277Z,100.00
2023-01-21T04:39:42.075Z,100.00
2023-01-21T04:42:08.865Z,100.00
2023-01-21T04:44:35.677Z,100.00
2023-01-21T04:47:02.438Z,100.00
2023-01-21T04:49:29.299Z,100.00
2023-01-21T04:51:56.255Z,100.00
2023-01-21T04:54:23.179Z,100.00
2023-01-21T04:56:49.955Z,100.00
2023-01-21T04:59:16.798Z,100.00
2023-01-21T05:01:43.617Z,100.00
2023-01-21T05:04:10.395Z,100.00
2023-01-21T05:06:37.368Z,100.00
2023-01-21T05:09:04.259Z,100.00
2023-01-21T05:11:31.061Z,100.00
2023-01-21T05:13:57.879Z,100.00
2023-01-21T05:16:24.790Z,100.00
2023-01-21T05:18:51.704Z,100.00
2023-01-21T05:21:18.535Z,100.00
2023-01-21T05:23:45.319Z,100.00
2023-01-21T05:26:12.097Z,100.00
2023-01-21T05:28:39.018Z,100.00
2023-01-21T05:31:05.950Z,100.00
2023-01-21T05:33:33.341Z,100.00
2023-01-21T05:36:00.417Z,100.00
2023-01-21T05:38:27.353Z,100.00
2023-01-21T05:40:59.540Z,100.00
2023-01-21T05:43:26.576Z,100.00
2023-01-21T05:45:53.493Z,100.00
2023-01-21T05:48:20.389Z,100.00
2023-01-21T05:50:47.667Z,100.00
2023-01-21T05:53:14.575Z,100.00
2023-01-21T05:55:41.453Z,100.00
2023-01-21T05:58:08.375Z,100.00
2023-01-21T06:00:35.173Z,100.00
2023-01-21T06:03:02.385Z,100.00
2023-01-21T06:05:29.415Z,100.00
2023-01-21T06:07:56.276Z,100.00
2023-01-21T06:10:23.075Z,100.00
2023-01-21T06:12:51.850Z,100.00
2023-01-21T06:15:19.470Z,100.00
2023-01-21T06:17:47.512Z,100.00
2023-01-21T06:20:14.686Z,100.00
2023-01-21T06:22:41.675Z,100.00
2023-01-21T06:25:08.863Z,100.00
2023-01-21T06:27:37.361Z,100.00
2023-01-21T06:30:07.697Z,100.00
2023-01-21T06:32:34.824Z,100.00
2023-01-21T06:35:01.676Z,100.00
2023-01-21T06:37:28.476Z,100.00
2023-01-21T06:39:55.286Z,100.00
2023-01-21T06:42:22.093Z,100.00
2023-01-21T06:44:48.896Z,100.00
2023-01-21T06:47:15.707Z,100.00
2023-01-21T06:49:42.565Z,100.00
2023-01-21T06:52:09.418Z,100.00
2023-01-21T06:54:36.338Z,100.00
2023-01-21T06:57:03.265Z,100.00
2023-01-21T06:59:30.079Z,100.00
2023-01-21T07:01:59.272Z,100.00
2023-01-21T07:04:26.677Z,100.00
2023-01-21T07:06:53.761Z,100.00
2023-01-21T07:09:20.915Z,100.00
2023-01-21T07:11:47.969Z,100.00
2023-01-21T07:14:14.923Z,100.00
2023-01-21T07:16:41.825Z,100.00
2023-01-21T07:19:08.665Z,100.00
2023-01-21T07:21:35.518Z,100.00
2023-01-21T07:24:02.339Z,100.00
2023-01-21T07:26:29.193Z,100.00
2023-01-21T07:28:56.120Z,100.00
2023-01-21T07:31:23.075Z,100.00
2023-01-21T07:33:49.974Z,100.00
2023-01-21T07:36:17.014Z,100.00
2023-01-21T07:38:43.915Z,100.00
2023-01-21T07:41:10.825Z,100.00
2023-01-21T07:43:37.657Z,100.00
2023-01-21T07:46:04.516Z,100.00
2023-01-21T07:48:31.388Z,100.00
2023-01-21T07:50:58.904Z,100.00
2023-01-21T07:53:26.020Z,100.00
2023-01-21T07:55:52.910Z,100.00
2023-01-21T07:58:19.737Z,100.00
2023-01-21T08:00:46.554Z,100.00
2023-01-21T08:03:13.321Z,100.00
2023-01-21T08:05:40.208Z,100.00
2023-01-21T08:08:06.997Z,100.00
2023-01-21T08:10:33.768Z,100.00
2023-01-21T08:13:02.012Z,100.00
2023-01-21T08:15:28.929Z,100.00
2023-01-21T08:17:56.672Z,100.00
2023-01-21T08:20:24.017Z,100.00
2023-01-21T08:22:51.027Z,99.94
2023-01-21T08:25:18.405Z,99.25
2023-01-21T08:27:45.353Z,98.29
2023-01-21T08:30:12.458Z,99.70
2023-01-21T08:32:39.405Z,100.00
2023-01-21T08:35:06.894Z,100.00
2023-01-21T08:37:33.759Z,99.40
2023-01-21T08:40:00.596Z,99.70
2023-01-21T08:42:27.424Z,100.00
2023-01-21T08:44:54.318Z,99.61
2023-01-21T08:47:21.155Z,99.89
2023-01-21T08:49:47.918Z,100.00
2023-01-21T08:52:17.075Z,99.61
2023-01-21T08:54:43.972Z,100.00
2023-01-21T08:57:11.536Z,99.98
2023-01-21T08:59:38.456Z,100.00
2023-01-21T09:02:05.474Z,100.00
2023-01-21T09:04:32.438Z,100.00
2023-01-21T09:06:59.324Z,100.00
2023-01-21T09:09:26.194Z,99.68
2023-01-21T09:11:53.085Z,100.00
2023-01-21T09:14:20.579Z,100.00
2023-01-21T09:16:50.604Z,100.00
2023-01-21T09:19:17.586Z,100.00
2023-01-21T09:21:44.479Z,100.00
2023-01-21T09:24:11.352Z,100.00
2023-01-21T09:26:38.213Z,100.00
2023-01-21T09:29:05.095Z,100.00
2023-01-21T09:31:32.162Z,100.00
2023-01-21T09:34:00.642Z,100.00
2023-01-21T09:36:29.655Z,100.00
2023-01-21T09:38:56.659Z,100.00
2023-01-21T09:41:40.319Z,100.00
2023-01-21T09:44:14.792Z,100.00
2023-01-21T09:47:06.590Z,100.00
2023-01-21T09:49:35.020Z,100.00
2023-01-21T09:52:29.616Z,100.00
2023-01-21T09:54:56.580Z,100.00
2023-01-21T09:58:01.026Z,100.00
2023-01-21T10:00:30.851Z,100.00
2023-01-21T10:03:21.988Z,100.00
2023-01-21T10:06:14.615Z,100.00
2023-01-21T10:09:12.271Z,100.00
2023-01-21T10:12:00.340Z,100.00
2023-01-21T10:14:40.142Z,100.00
2023-01-21T10:17:16.121Z,100.00
2023-01-21T10:19:47.652Z,100.00
2023-01-21T10:22:27.955Z,100.00
2023-01-21T10:24:58.557Z,100.00
2023-01-21T10:27:25.477Z,100.00
2023-01-21T10:29:58.046Z,100.00
2023-01-21T10:32:25.816Z,100.00
2023-01-21T10:34:53.804Z,98.78
2023-01-21T10:37:20.513Z,100.00
2023-01-21T10:40:08.732Z,99.14
2023-01-21T10:42:51.525Z,98.92
2023-01-21T10:45:24.759Z,98.47
2023-01-21T10:48:28.923Z,99.10
2023-01-21T10:51:20.661Z,96.19
2023-01-21T10:53:50.303Z,96.96
2023-01-21T10:56:34.340Z,97.11
2023-01-21T10:59:06.737Z,96.32
2023-01-21T11:01:38.946Z,96.16
2023-01-21T11:04:21.913Z,94.70
2023-01-21T11:07:07.877Z,96.26
2023-01-21T11:09:37.319Z,95.98
2023-01-21T11:12:04.393Z,96.25
2023-01-21T11:14:31.193Z,97.80
2023-01-21T11:16:58.265Z,97.92
2023-01-21T11:19:27.080Z,98.51
2023-01-21T11:22:20.984Z,98.62
2023-01-21T11:24:49.212Z,99.16
2023-01-21T11:27:20.977Z,99.81
2023-01-21T11:29:48.864Z,99.43
2023-01-21T11:32:20.360Z,99.97
2023-01-21T11:34:51.092Z,100.00
2023-01-21T11:37:26.110Z,100.00
2023-01-21T11:40:04.019Z,99.82
2023-01-21T11:42:30.897Z,100.00
2023-01-21T11:45:30.911Z,99.96
2023-01-21T11:47:58.416Z,100.00
2023-01-21T11:50:43.419Z,100.00
2023-01-21T11:53:14.144Z,100.00
2023-01-21T11:55:54.313Z,100.00
2023-01-21T11:58:24.474Z,100.00
2023-01-21T12:00:53.146Z,100.00
2023-01-21T12:03:48.743Z,100.00
2023-01-21T12:06:31.676Z,100.00
2023-01-21T12:09:02.534Z,100.00
2023-01-21T12:11:30.045Z,100.00
2023-01-21T12:14:29.056Z,100.00
2023-01-21T12:17:26.686Z,100.00
2023-01-21T12:20:03.096Z,100.00
2023-01-21T12:22:35.614Z,100.00
2023-01-21T12:25:19.801Z,100.00
2023-01-21T12:28:09.373Z,100.00
2023-01-21T12:30:42.120Z,100.00
2023-01-21T12:33:22.179Z,99.95
2023-01-21T12:36:11.155Z,100.00
2023-01-21T12:38:46.442Z,98.98
2023-01-21T12:41:18.668Z,100.00
2023-01-21T12:43:54.975Z,99.60
2023-01-21T12:46:28.208Z,99.30
2023-01-21T12:49:44.318Z,98.77
2023-01-21T12:52:23.239Z,98.45
2023-01-21T12:54:59.454Z,98.17
2023-01-21T12:57:46.843Z,98.67
2023-01-21T13:00:32.655Z,98.29
2023-01-21T13:03:24.645Z,98.21
2023-01-21T13:06:13.975Z,98.40
2023-01-21T13:09:02.273Z,99.81
2023-01-21T13:11:41.155Z,100.00
2023-01-21T13:14:07.927Z,100.00
2023-01-21T13:16:47.974Z,100.00
2023-01-21T13:19:15.025Z,100.00
2023-01-21T13:21:56.957Z,100.00
2023-01-21T13:25:01.238Z,100.00
2023-01-21T13:28:05.410Z,100.00
2023-01-21T13:30:47.327Z,100.00
2023-01-21T13:33:37.317Z,100.00
2023-01-21T13:36:16.342Z,100.00
2023-01-21T13:38:55.321Z,100.00
2023-01-21T13:41:22.091Z,100.00
2023-01-21T13:43:58.237Z,100.00
2023-01-21T13:46:49.703Z,100.00
2023-01-21T13:49:39.265Z,100.00
2023-01-21T13:52:11.775Z,100.00
2023-01-21T13:54:44.634Z,100.00
2023-01-21T13:57:46.037Z,100.00
2023-01-21T14:00:22.700Z,100.00
2023-01-21T14:02:57.894Z,100.00
2023-01-21T14:05:35.017Z,100.00
2023-01-21T14:08:22.196Z,100.00
2023-01-21T14:10:50.973Z,100.00
2023-01-21T14:13:35.817Z,100.00
2023-01-21T14:16:14.292Z,100.00
2023-01-21T14:19:04.946Z,100.00
2023-01-21T14:21:34.753Z,100.00
2023-01-21T14:24:13.674Z,100.00
2023-01-21T14:27:02.012Z,100.00
2023-01-21T14:29:45.330Z,100.00
2023-01-21T14:32:32.760Z,100.00
2023-01-21T14:35:32.942Z,100.00
2023-01-21T14:38:12.604Z,100.00
2023-01-21T14:41:02.803Z,100.00
2023-01-21T14:43:32.357Z,100.00
2023-01-21T14:46:00.325Z,100.00
2023-01-21T14:48:40.449Z,100.00
2023-01-21T14:51:07.314Z,100.00
2023-01-21T14:53:42.954Z,100.00
2023-01-21T14:56:22.862Z,100.00
2023-01-21T14:59:00.655Z,100.00
2023-01-21T15:01:46.045Z,100.00
2023-01-21T15:04:32.292Z,100.00
2023-01-21T15:07:00.840Z,100.00
2023-01-21T15:09:31.498Z,100.00
2023-01-21T15:12:14.060Z,100.00
2023-01-21T15:14:41.870Z,100.00
2023-01-21T15:17:46.483Z,100.00
2023-01-21T15:20:50.852Z,100.00
2023-01-21T15:23:29.620Z,100.00
2023-01-21T15:26:09.112Z,100.00
2023-01-21T15:28:52.238Z,100.00
2023-01-21T15:31:19.069Z,100.00
2023-01-21T15:33:52.162Z,100.00
2023-01-21T15:36:20.422Z,100.00
2023-01-21T15:38:47.337Z,100.00
2023-01-21T15:41:35.719Z,100.00
2023-01-21T15:44:33.275Z,100.00
2023-01-21T15:47:25.673Z,100.00
2023-01-21T15:50:11.352Z,100.00
2023-01-21T15:53:05.582Z,100.00
2023-01-21T15:55:32.469Z,100.00
2023-01-21T15:58:12.560Z,100.00
2023-01-21T16:00:48.420Z,100.00
2023-01-21T16:03:38.527Z,100.00
2023-01-21T16:06:33.459Z,100.00
2023-01-21T16:09:08.496Z,100.00
2023-01-21T16:11:51.600Z,100.00
2023-01-21T16:14:34.983Z,100.00
2023-01-21T16:17:10.912Z,100.00
2023-01-21T16:19:40.926Z,100.00
2023-01-21T16:22:09.634Z,100.00
2023-01-21T16:24:45.312Z,100.00
2023-01-21T16:27:24.478Z,100.00
2023-01-21T16:30:00.980Z,100.00
2023-01-21T16:32:28.038Z,100.00
2023-01-21T16:34:54.877Z,100.00
2023-01-21T16:37:23.814Z,100.00
2023-01-21T16:39:54.002Z,100.00
2023-01-21T16:42:26.803Z,100.00
2023-01-21T16:44:53.698Z,100.00
2023-01-21T16:47:33.100Z,100.00
2023-01-21T16:49:59.876Z,100.00
2023-01-21T16:52:28.147Z,100.00
2023-01-21T16:54:55.352Z,100.00
2023-01-21T16:57:31.953Z,100.00
2023-01-21T17:00:02.412Z,100.00
2023-01-21T17:02:33.361Z,100.00
2023-01-21T17:05:02.330Z,100.00
2023-01-21T17:07:42.491Z,100.00
2023-01-21T17:10:15.780Z,100.00
2023-01-21T17:12:50.503Z,100.00
2023-01-21T17:15:37.678Z,100.00
2023-01-21T17:18:06.428Z,100.00
2023-01-21T17:20:44.226Z,100.00
2023-01-21T17:23:17.419Z,100.00
2023-01-21T17:25:53.019Z,100.00
2023-01-21T17:28:46.736Z,100.00
2023-01-21T17:31:16.622Z,100.00
2023-01-21T17:33:43.899Z,100.00
2023-01-21T17:36:21.493Z,100.00
2023-01-21T17:38:56.774Z,100.00
2023-01-21T17:41:28.059Z,100.00
2023-01-21T17:43:55.819Z,100.00
2023-01-21T17:46:23.646Z,100.00
2023-01-21T17:48:52.016Z,100.00
2023-01-21T17:51:20.827Z,100.00
2023-01-21T17:54:21.569Z,100.00
2023-01-21T17:56:50.268Z,100.00
2023-01-21T17:59:38.365Z,100.00
2023-01-21T18:02:12.966Z,100.00
2023-01-21T18:04:40.660Z,100.00
2023-01-21T18:07:24.831Z,100.00
2023-01-21T18:09:52.355Z,100.00
2023-01-21T18:12:22.092Z,100.00
2023-01-21T18:14:49.034Z,100.00
2023-01-21T18:17:20.358Z,100.00
2023-01-21T18:19:47.237Z,100.00
2023-01-21T18:22:28.359Z,100.00
2023-01-21T18:24:55.460Z,100.00
2023-01-21T18:27:25.661Z,100.00
2023-01-21T18:29:52.983Z,100.00
2023-01-21T18:32:19.806Z,100.00
2023-01-21T18:34:51.654Z,100.00
2023-01-21T18:37:19.526Z,100.00
2023-01-21T18:39:46.812Z,100.00
2023-01-21T18:42:14.977Z,100.00
2023-01-21T18:44:41.931Z,100.00
2023-01-21T18:47:13.229Z,100.00
2023-01-21T18:49:40.111Z,100.00
2023-01-21T18:52:07.062Z,100.00
2023-01-21T18:54:34.131Z,100.00
2023-01-21T18:57:02.029Z,100.00
2023-01-21T18:59:28.929Z,100.00
2023-01-21T19:01:55.899Z,100.00
2023-01-21T19:04:22.851Z,100.00
2023-01-21T19:06:55.608Z,100.00
2023-01-21T19:09:24.013Z,100.00
2023-01-21T19:11:51.239Z,100.00
2023-01-21T19:14:18.267Z,100.00
2023-01-21T19:16:45.240Z,100.00
2023-01-21T19:19:15.901Z,100.00
2023-01-21T19:21:43.003Z,100.00
2023-01-21T19:24:12.145Z,100.00
2023-01-21T19:26:39.253Z,100.00
2023-01-21T19:29:07.878Z,100.00
2023-01-21T19:31:34.835Z,100.00
2023-01-21T19:34:01.749Z,100.00
2023-01-21T19:36:28.597Z,100.00
2023-01-21T19:38:57.044Z,100.00
2023-01-21T19:41:24.000Z,100.00
2023-01-21T19:43:50.853Z,100.00
2023-01-21T19:46:18.005Z,100.00
2023-01-21T19:48:44.858Z,100.00
2023-01-21T19:51:11.777Z,100.00
2023-01-21T19:53:38.700Z,100.00
2023-01-21T19:56:05.806Z,100.00
2023-01-21T19:58:32.837Z,100.00
2023-01-21T20:00:59.814Z,100.00
2023-01-21T20:03:28.430Z,100.00
2023-01-21T20:06:01.845Z,100.00
2023-01-21T20:08:29.315Z,100.00
2023-01-21T20:10:56.555Z,100.00
2023-01-21T20:13:23.527Z,100.00
2023-01-21T20:15:51.299Z,100.00
2023-01-21T20:18:24.586Z,100.00
2023-01-21T20:20:52.290Z,100.00
2023-01-21T20:23:19.641Z,100.00
2023-01-21T20:25:47.964Z,100.00
2023-01-21T20:28:18.934Z,100.00
2023-01-21T20:30:45.910Z,100.00
2023-01-21T20:33:14.684Z,100.00
2023-01-21T20:35:41.476Z,100.00
2023-01-21T20:38:13.354Z,100.00
2023-01-21T20:40:40.333Z,100.00
2023-01-21T20:43:07.187Z,100.00
2023-01-21T20:45:39.881Z,100.00
2023-01-21T20:48:06.778Z,100.00
2023-01-21T20:50:35.473Z,100.00
2023-01-21T20:53:02.996Z,100.00
2023-01-21T20:55:30.175Z,100.00
2023-01-21T20:57:57.138Z,100.00
2023-01-21T21:00:26.422Z,100.00
2023-01-21T21:02:56.350Z,100.00
2023-01-21T21:05:24.010Z,100.00
2023-01-21T21:07:50.862Z,100.00
2023-01-21T21:10:23.155Z,100.00
2023-01-21T21:12:50.085Z,100.00
2023-01-21T21:15:17.643Z,100.00
2023-01-21T21:17:47.124Z,100.00
2023-01-21T21:20:34.837Z,100.00
2023-01-21T21:23:01.899Z,100.00
2023-01-21T21:25:30.225Z,100.00
2023-01-21T21:27:57.174Z,100.00
2023-01-21T21:30:28.872Z,100.00
2023-01-21T21:32:56.206Z,100.00
2023-01-21T21:35:33.204Z,100.00
2023-01-21T21:38:04.037Z,100.00
2023-01-21T21:40:31.111Z,100.00
2023-01-21T21:43:17.022Z,100.00
2023-01-21T21:46:02.168Z,100.00
2023-01-21T21:48:42.610Z,100.00
2023-01-21T21:51:11.338Z,100.00
2023-01-21T21:53:38.615Z,100.00
2023-01-21T21:56:10.125Z,100.00
2023-01-21T21:58:36.915Z,100.00
2023-01-21T22:01:11.623Z,100.00
2023-01-21T22:03:38.731Z,100.00
2023-01-21T22:06:06.001Z,100.00
2023-01-21T22:08:33.576Z,100.00
2023-01-21T22:11:00.920Z,100.00
2023-01-21T22:13:28.807Z,100.00
2023-01-21T22:15:56.413Z,100.00
2023-01-21T22:18:24.585Z,100.00
2023-01-21T22:20:55.433Z,100.00
2023-01-21T22:23:22.855Z,100.00
2023-01-21T22:25:49.704Z,100.00
2023-01-21T22:28:16.803Z,100.00
2023-01-21T22:30:43.713Z,100.00
2023-01-21T22:33:10.711Z,100.00
2023-01-21T22:35:37.552Z,100.00
2023-01-21T22:38:04.540Z,100.00
2023-01-21T22:40:34.042Z,100.00
2023-01-21T22:43:01.435Z,100.00
2023-01-21T22:45:28.343Z,100.00
2023-01-21T22:47:55.166Z,100.00
2023-01-21T22:50:22.075Z,100.00
2023-01-21T22:52:49.001Z,100.00
2023-01-21T22:55:16.335Z,100.00
2023-01-21T22:57:43.400Z,100.00
2023-01-21T23:00:11.723Z,100.00
2023-01-21T23:02:38.622Z,100.00
2023-01-21T23:05:05.607Z,100.00
2023-01-21T23:07:33.860Z,100.00
2023-01-21T23:10:00.676Z,100.00
2023-01-21T23:12:28.829Z,100.00
2023-01-21T23:14:55.654Z,100.00
2023-01-21T23:17:22.420Z,100.00
2023-01-21T23:19:49.255Z,100.00
2023-01-21T23:22:16.034Z,100.00
2023-01-21T23:24:42.866Z,100.00
2023-01-21T23:27:09.678Z,100.00
2023-01-21T23:29:37.393Z,100.00
2023-01-21T23:32:04.477Z,100.00
2023-01-21T23:34:31.296Z,100.00
2023-01-21T23:36:58.094Z,100.00
2023-01-21T23:39:24.939Z,100.00
2023-01-21T23:41:51.741Z,100.00
2023-01-21T23:44:18.536Z,100.00
2023-01-21T23:46:45.394Z,100.00
2023-01-21T23:49:14.788Z,100.00
2023-01-21T23:51:41.760Z,100.00
2023-01-21T23:54:11.015Z,100.00
2023-01-21T23:56:37.895Z,100.00
2023-01-21T23:59:04.787Z,100.00
